Time;durP1;ratioP1;P1;durP2;ratioP2;P2;SDS_P1;SDS_P2;PMS_P1;PMS_P2;Temp;Humidity;BMP_temperature;BMP_pressure;BME280_temperature;BME280_humidity;BME280_pressure;Samples;Min_cycle;Max_cycle;Signal;HPM_P1;HPM_P2
2022/09/23 00:01:32;;;;;;;7.40;6.70;;;;;;;;;;5033459;28;20251;-85
2022/09/23 00:04:01;;;;;;;8.53;5.90;;;;;;;;;;5035732;28;20225;-84
2022/09/23 00:06:29;;;;;;;4.10;3.70;;;;;;;;;;5042375;28;20195;-85
2022/09/23 00:08:59;;;;;;;7.67;6.80;;;;;;;;;;5037388;28;20198;-85
2022/09/23 00:11:29;;;;;;;9.27;5.10;;;;;;;;;;5040759;28;20231;-85
2022/09/23 00:13:58;;;;;;;8.47;7.57;;;;;;;;;;5054676;28;20218;-85
2022/09/23 00:16:28;;;;;;;9.73;6.47;;;;;;;;;;5052658;28;20197;-84
2022/09/23 00:18:57;;;;;;;10.40;7.37;;;;;;;;;;5045205;28;20286;-85
2022/09/23 00:21:25;;;;;;;11.07;8.50;;;;;;;;;;5045239;28;20230;-84
2022/09/23 00:23:54;;;;;;;8.87;7.57;;;;;;;;;;5051569;28;20230;-84
2022/09/23 00:26:24;;;;;;;6.60;5.70;;;;;;;;;;5066774;28;20222;-85
2022/09/23 00:28:52;;;;;;;7.57;6.50;;;;;;;;;;5020398;28;20230;-85
2022/09/23 00:31:22;;;;;;;9.10;6.03;;;;;;;;;;5044812;28;20293;-84
2022/09/23 00:33:53;;;;;;;8.00;7.00;;;;;;;;;;5040932;28;20218;-85
2022/09/23 00:36:24;;;;;;;5.77;5.27;;;;;;;;;;5035429;28;20241;-84
2022/09/23 00:38:52;;;;;;;9.00;5.27;;;;;;;;;;5023200;28;20250;-85
2022/09/23 00:41:21;;;;;;;8.20;6.90;;;;;;;;;;5033652;28;20203;-85
2022/09/23 00:43:52;;;;;;;9.97;6.30;;;;;;;;;;5036257;28;20211;-84
2022/09/23 00:46:22;;;;;;;8.73;7.80;;;;;;;;;;5040559;28;20247;-85
2022/09/23 00:48:53;;;;;;;9.30;6.83;;;;;;;;;;5060458;28;20337;-85
2022/09/23 00:51:24;;;;;;;8.07;7.30;;;;;;;;;;5035343;28;20215;-84
2022/09/23 00:53:53;;;;;;;9.27;7.13;;;;;;;;;;5069528;28;20198;-84
2022/09/23 00:56:23;;;;;;;7.20;6.50;;;;;;;;;;5043004;28;20193;-85
2022/09/23 00:58:54;;;;;;;5.57;5.00;;;;;;;;;;5048812;28;20263;-84
2022/09/23 01:01:22;;;;;;;9.27;7.07;;;;;;;;;;5050149;28;20302;-84
2022/09/23 01:03:53;;;;;;;8.63;5.90;;;;;;;;;;5049185;28;20219;-85
2022/09/23 01:06:21;;;;;;;8.00;7.00;;;;;;;;;;5066203;28;20285;-84
2022/09/23 01:08:50;;;;;;;6.73;6.03;;;;;;;;;;5041787;28;20221;-85
2022/09/23 01:11:23;;;;;;;9.07;7.97;;;;;;;;;;5055414;28;20256;-84
2022/09/23 01:14:02;;;;;;;9.33;7.73;;;;;;;;;;5053893;28;20278;-85
2022/09/23 01:16:34;;;;;;;5.67;4.87;;;;;;;;;;5057500;28;20289;-85
2022/09/23 01:19:10;;;;;;;5.70;5.20;;;;;;;;;;5043818;28;20289;-85
2022/09/23 01:21:47;;;;;;;8.83;7.73;;;;;;;;;;5071737;28;20248;-84
2022/09/23 01:24:38;;;;;;;11.43;8.50;;;;;;;;;;5050217;28;20231;-85
2022/09/23 01:27:12;;;;;;;12.77;8.03;;;;;;;;;;5065221;28;20293;-85
2022/09/23 01:29:57;;;;;;;7.83;7.03;;;;;;;;;;5026325;28;20298;-85
2022/09/23 01:32:32;;;;;;;12.60;9.27;;;;;;;;;;5052866;28;20205;-84
2022/09/23 01:35:04;;;;;;;10.53;8.07;;;;;;;;;;5042909;28;20226;-84
2022/09/23 01:37:34;;;;;;;6.73;6.13;;;;;;;;;;5030976;28;20221;-85
2022/09/23 01:40:04;;;;;;;11.93;7.27;;;;;;;;;;5054208;28;20247;-84
2022/09/23 01:42:36;;;;;;;7.37;6.63;;;;;;;;;;5044255;28;20202;-85
2022/09/23 01:45:09;;;;;;;6.00;5.43;;;;;;;;;;5039426;28;20253;-84
2022/09/23 01:47:42;;;;;;;10.67;9.27;;;;;;;;;;5024992;28;20247;-84
2022/09/23 01:52:55;;;;;;;10.47;9.10;;;;;;;;;;5039797;28;20203;-85
2022/09/23 01:55:27;;;;;;;9.20;7.00;;;;;;;;;;5019138;28;20187;-85
2022/09/23 01:57:58;;;;;;;9.67;7.33;;;;;;;;;;5043752;28;20237;-84
2022/09/23 02:00:28;;;;;;;8.57;6.53;;;;;;;;;;5035000;28;20227;-85
2022/09/23 02:03:03;;;;;;;4.63;3.03;;;;;;;;;;5050768;28;20230;-85
2022/09/23 02:05:35;;;;;;;8.60;7.43;;;;;;;;;;5061371;28;20271;-84
2022/09/23 02:08:06;;;;;;;11.03;8.43;;;;;;;;;;5038143;28;20202;-85
2022/09/23 02:10:36;;;;;;;27.27;8.77;;;;;;;;;;5070779;28;20202;-85
2022/09/23 02:13:08;;;;;;;12.20;8.23;;;;;;;;;;5070720;28;20226;-85
2022/09/23 02:15:40;;;;;;;10.67;9.57;;;;;;;;;;5054169;28;20202;-85
2022/09/23 02:18:14;;;;;;;9.97;8.33;;;;;;;;;;5022404;28;20272;-84
2022/09/23 02:20:43;;;;;;;9.60;6.80;;;;;;;;;;5033493;28;20234;-84
2022/09/23 02:23:12;;;;;;;11.03;8.20;;;;;;;;;;5032486;28;20253;-85
2022/09/23 02:25:45;;;;;;;9.70;8.47;;;;;;;;;;5068690;28;20275;-84
2022/09/23 02:28:16;;;;;;;14.13;8.63;;;;;;;;;;5045349;28;20248;-85
2022/09/23 02:30:47;;;;;;;10.80;8.87;;;;;;;;;;5040395;28;20265;-85
2022/09/23 02:33:21;;;;;;;8.90;7.97;;;;;;;;;;5053725;28;20225;-84
2022/09/23 02:35:52;;;;;;;12.30;9.80;;;;;;;;;;5040407;28;20286;-85
2022/09/23 02:38:24;;;;;;;6.83;6.03;;;;;;;;;;5057239;28;20206;-84
2022/09/23 02:40:55;;;;;;;10.20;7.83;;;;;;;;;;5023443;28;20199;-85
2022/09/23 02:43:26;;;;;;;8.90;6.80;;;;;;;;;;5049500;28;20213;-84
2022/09/23 02:45:55;;;;;;;9.87;8.80;;;;;;;;;;5054233;28;20218;-85
2022/09/23 02:48:27;;;;;;;11.17;9.50;;;;;;;;;;5053893;28;20256;-84
2022/09/23 02:50:55;;;;;;;11.17;9.53;;;;;;;;;;5043590;28;20203;-85
2022/09/23 02:53:24;;;;;;;10.03;9.00;;;;;;;;;;5034197;28;20297;-85
2022/09/23 02:55:52;;;;;;;7.73;6.87;;;;;;;;;;5045368;28;20190;-84
2022/09/23 02:58:20;;;;;;;11.27;9.20;;;;;;;;;;5037426;28;20194;-85
2022/09/23 03:00:53;;;;;;;11.23;8.60;;;;;;;;;;5043106;28;20269;-84
2022/09/23 03:03:30;;;;;;;10.10;7.67;;;;;;;;;;5032585;28;20202;-84
2022/09/23 03:06:00;;;;;;;9.37;8.07;;;;;;;;;;5033710;28;20225;-84
2022/09/23 03:08:35;;;;;;;9.73;8.77;;;;;;;;;;5039639;28;20266;-84
2022/09/23 03:11:06;;;;;;;8.50;7.63;;;;;;;;;;5044659;28;20224;-85
2022/09/23 03:13:38;;;;;;;11.63;7.60;;;;;;;;;;5069133;28;20202;-84
2022/09/23 03:16:12;;;;;;;5.43;4.77;;;;;;;;;;5066555;28;20203;-84
2022/09/23 03:18:44;;;;;;;4.50;4.07;;;;;;;;;;5033647;28;20234;-85
2022/09/23 03:21:16;;;;;;;9.37;5.03;;;;;;;;;;5038851;28;20236;-84
2022/09/23 03:23:45;;;;;;;9.27;7.90;;;;;;;;;;5052473;28;20230;-84
2022/09/23 03:26:21;;;;;;;7.80;6.07;;;;;;;;;;5039604;28;20203;-84
2022/09/23 03:28:50;;;;;;;10.20;9.13;;;;;;;;;;5055942;28;20223;-84
2022/09/23 03:31:18;;;;;;;15.87;10.20;;;;;;;;;;5060702;28;20245;-84
2022/09/23 03:33:50;;;;;;;10.33;8.80;;;;;;;;;;5022442;28;20210;-85
2022/09/23 03:39:11;;;;;;;9.63;8.37;;;;;;;;;;5013808;28;20290;-84
2022/09/23 03:41:42;;;;;;;10.70;9.57;;;;;;;;;;5040542;28;20210;-84
2022/09/23 03:44:11;;;;;;;12.77;10.73;;;;;;;;;;5031093;28;20254;-85
2022/09/23 03:46:41;;;;;;;11.70;9.13;;;;;;;;;;5046026;28;20297;-84
2022/09/23 03:49:16;;;;;;;12.20;9.77;;;;;;;;;;5033190;28;20214;-85
2022/09/23 03:51:44;;;;;;;9.63;8.33;;;;;;;;;;5049136;28;20197;-85
2022/09/23 03:54:12;;;;;;;10.70;9.60;;;;;;;;;;5051661;28;20206;-84
2022/09/23 03:56:41;;;;;;;9.93;7.20;;;;;;;;;;5068190;28;20218;-84
2022/09/23 03:59:09;;;;;;;4.93;4.53;;;;;;;;;;5066988;28;20194;-85
2022/09/23 04:01:37;;;;;;;14.47;8.53;;;;;;;;;;5054673;28;20226;-85
2022/09/23 04:04:06;;;;;;;10.13;8.67;;;;;;;;;;5053027;28;20198;-84
2022/09/23 04:06:36;;;;;;;10.47;8.07;;;;;;;;;;5068160;28;20218;-86
2022/09/23 04:09:04;;;;;;;6.97;6.23;;;;;;;;;;5067807;28;20293;-85
2022/09/23 04:11:33;;;;;;;12.33;8.87;;;;;;;;;;5049648;28;20209;-85
2022/09/23 04:14:01;;;;;;;4.27;3.93;;;;;;;;;;5032141;28;20199;-85
2022/09/23 04:16:29;;;;;;;6.33;5.77;;;;;;;;;;5026673;28;20199;-85
2022/09/23 04:18:58;;;;;;;5.73;3.60;;;;;;;;;;5051537;28;20202;-85
2022/09/23 04:21:29;;;;;;;7.60;6.57;;;;;;;;;;5032327;28;20218;-84
2022/09/23 04:23:59;;;;;;;11.07;9.07;;;;;;;;;;5045927;28;20272;-85
2022/09/23 04:26:28;;;;;;;8.20;7.30;;;;;;;;;;5052483;28;20260;-85
2022/09/23 04:28:57;;;;;;;6.80;5.97;;;;;;;;;;5051174;28;20205;-85
2022/09/23 04:31:25;;;;;;;10.70;9.20;;;;;;;;;;5042680;28;20222;-85
2022/09/23 04:33:54;;;;;;;6.67;5.83;;;;;;;;;;5048289;28;20237;-85
2022/09/23 04:36:22;;;;;;;3.00;2.80;;;;;;;;;;5058491;28;20254;-85
2022/09/23 04:38:52;;;;;;;3.27;2.83;;;;;;;;;;5048960;28;20199;-85
2022/09/23 04:41:22;;;;;;;5.00;4.47;;;;;;;;;;5040874;28;20236;-85
2022/09/23 04:43:50;;;;;;;3.17;2.67;;;;;;;;;;5033388;28;20191;-84
2022/09/23 04:46:19;;;;;;;3.97;2.97;;;;;;;;;;5031861;28;20227;-83
2022/09/23 04:48:50;;;;;;;3.40;3.13;;;;;;;;;;5031959;28;20199;-85
2022/09/23 04:51:19;;;;;;;5.77;4.90;;;;;;;;;;5033192;28;20237;-85
2022/09/23 04:53:48;;;;;;;6.37;5.73;;;;;;;;;;5038822;28;20226;-85
2022/09/23 04:56:18;;;;;;;11.40;7.90;;;;;;;;;;5050455;28;20221;-85
2022/09/23 04:58:48;;;;;;;4.47;3.97;;;;;;;;;;5032113;28;20202;-84
2022/09/23 05:01:18;;;;;;;9.10;8.17;;;;;;;;;;5031571;28;20223;-85
2022/09/23 05:03:47;;;;;;;13.03;8.70;;;;;;;;;;5040878;28;20210;-85
2022/09/23 05:06:16;;;;;;;1.97;1.87;;;;;;;;;;5067449;28;20297;-85
2022/09/23 05:08:49;;;;;;;6.03;2.10;;;;;;;;;;5051950;28;20207;-85
2022/09/23 05:11:18;;;;;;;9.27;5.93;;;;;;;;;;5046651;28;20211;-85
2022/09/23 05:13:47;;;;;;;5.73;5.20;;;;;;;;;;5042117;28;20202;-85
2022/09/23 05:16:17;;;;;;;7.23;6.50;;;;;;;;;;5049619;28;20191;-85
2022/09/23 05:18:46;;;;;;;3.47;3.13;;;;;;;;;;5039580;28;20203;-85
2022/09/23 05:21:15;;;;;;;12.17;8.77;;;;;;;;;;5050518;28;20194;-84
2022/09/23 05:23:47;;;;;;;7.47;6.13;;;;;;;;;;5050197;28;20292;-85
2022/09/23 05:26:16;;;;;;;5.57;4.77;;;;;;;;;;5046071;28;20246;-85
2022/09/23 05:28:45;;;;;;;7.60;6.80;;;;;;;;;;5032197;28;20222;-85
2022/09/23 05:31:15;;;;;;;6.03;2.90;;;;;;;;;;5035843;28;20203;-84
2022/09/23 05:33:50;;;;;;;4.57;3.87;;;;;;;;;;5047489;28;20209;-79
2022/09/23 05:36:20;;;;;;;1.50;1.40;;;;;;;;;;5045745;28;20214;-80
2022/09/23 05:38:50;;;;;;;3.00;2.73;;;;;;;;;;5070108;28;20192;-80
2022/09/23 05:41:21;;;;;;;0.60;0.60;;;;;;;;;;5070771;28;20256;-81
2022/09/23 05:43:50;;;;;;;3.33;3.13;;;;;;;;;;5054966;28;20195;-80
2022/09/23 05:46:19;;;;;;;0.40;0.40;;;;;;;;;;5054152;28;20214;-80
2022/09/23 05:48:49;;;;;;;0.57;0.57;;;;;;;;;;5034924;28;20199;-83
2022/09/23 05:51:19;;;;;;;0.97;0.97;;;;;;;;;;5048956;28;20214;-82
2022/09/23 05:53:47;;;;;;;3.10;2.83;;;;;;;;;;5048419;28;20282;-82
2022/09/23 05:56:16;;;;;;;2.00;1.90;;;;;;;;;;5037036;28;20195;-81
2022/09/23 05:58:45;;;;;;;1.80;1.67;;;;;;;;;;5068465;28;20210;-82
2022/09/23 06:01:16;;;;;;;2.33;2.27;;;;;;;;;;5040813;28;20233;-83
2022/09/23 06:03:46;;;;;;;6.43;5.47;;;;;;;;;;5043165;28;20203;-84
2022/09/23 06:06:16;;;;;;;5.10;2.10;;;;;;;;;;5056948;28;20295;-84
2022/09/23 06:08:45;;;;;;;0.83;0.83;;;;;;;;;;5030726;28;20207;-84
2022/09/23 06:11:13;;;;;;;0.93;0.90;;;;;;;;;;5035327;28;20214;-84
2022/09/23 06:13:42;;;;;;;5.47;4.00;;;;;;;;;;5035447;28;20231;-82
2022/09/23 06:16:12;;;;;;;4.13;3.83;;;;;;;;;;5034417;28;20225;-85
2022/09/23 06:18:41;;;;;;;9.30;8.33;;;;;;;;;;5046920;28;20195;-86
2022/09/23 06:21:11;;;;;;;7.17;5.17;;;;;;;;;;5065542;28;20201;-85
2022/09/23 06:23:40;;;;;;;10.93;9.40;;;;;;;;;;5045539;28;20257;-85
2022/09/23 06:26:10;;;;;;;9.87;7.83;;;;;;;;;;5035936;28;20203;-86
2022/09/23 06:28:39;;;;;;;5.90;5.13;;;;;;;;;;5064072;28;20260;-85
2022/09/23 06:31:08;;;;;;;12.20;8.33;;;;;;;;;;5052981;28;20194;-85
2022/09/23 06:33:41;;;;;;;9.90;8.87;;;;;;;;;;5028804;28;20266;-86
2022/09/23 06:36:10;;;;;;;12.90;9.77;;;;;;;;;;5034667;28;20192;-85
2022/09/23 06:38:44;;;;;;;14.30;11.97;;;;;;;;;;5045558;28;20202;-86
2022/09/23 06:41:13;;;;;;;9.17;7.80;;;;;;;;;;5034332;28;20293;-85
2022/09/23 06:43:41;;;;;;;11.57;9.73;;;;;;;;;;5027393;28;20230;-85
2022/09/23 06:46:12;;;;;;;13.87;10.80;;;;;;;;;;5036398;28;20209;-85
2022/09/23 06:48:42;;;;;;;12.47;10.23;;;;;;;;;;5028421;28;20195;-85
2022/09/23 06:51:18;;;;;;;10.53;9.37;;;;;;;;;;5029952;28;20306;-85
2022/09/23 06:53:51;;;;;;;7.03;6.33;;;;;;;;;;5029183;28;20217;-85
2022/09/23 06:56:20;;;;;;;9.07;8.13;;;;;;;;;;5023700;28;20341;-85
2022/09/23 06:58:49;;;;;;;6.77;6.03;;;;;;;;;;5032332;28;20216;-85
2022/09/23 07:01:18;;;;;;;13.37;9.00;;;;;;;;;;5020592;28;20222;-85
2022/09/23 07:03:47;;;;;;;11.43;8.23;;;;;;;;;;5033493;28;20190;-85
2022/09/23 07:06:16;;;;;;;5.33;4.87;;;;;;;;;;5038339;28;20215;-84
2022/09/23 07:08:47;;;;;;;9.40;7.27;;;;;;;;;;5033782;28;20208;-85
2022/09/23 07:11:21;;;;;;;13.07;7.57;;;;;;;;;;5033899;28;20207;-85
2022/09/23 07:13:50;;;;;;;14.80;12.33;;;;;;;;;;5035117;28;20203;-86
2022/09/23 07:16:19;;;;;;;8.80;6.90;;;;;;;;;;5025879;28;20216;-85
2022/09/23 07:18:48;;;;;;;9.10;8.20;;;;;;;;;;5017565;28;20213;-86
2022/09/23 07:21:18;;;;;;;17.37;11.60;;;;;;;;;;5029950;28;20261;-86
2022/09/23 07:23:48;;;;;;;1.70;1.60;;;;;;;;;;5023725;28;20242;-86
2022/09/23 07:26:19;;;;;;;7.47;6.47;;;;;;;;;;5032974;28;20203;-85
2022/09/23 07:28:47;;;;;;;0.53;0.53;;;;;;;;;;5023829;28;20223;-86
2022/09/23 07:31:17;;;;;;;8.07;7.27;;;;;;;;;;5022448;28;20228;-87
2022/09/23 07:34:04;;;;;;;4.83;4.43;;;;;;;;;;5024087;28;20215;-86
2022/09/23 07:36:36;;;;;;;11.27;9.50;;;;;;;;;;5027531;28;20238;-84
2022/09/23 07:39:05;;;;;;;4.67;3.93;;;;;;;;;;5019929;28;20226;-85
2022/09/23 07:41:35;;;;;;;16.83;12.67;;;;;;;;;;5013591;28;20342;-84
2022/09/23 07:44:04;;;;;;;7.80;6.97;;;;;;;;;;5031024;28;20210;-85
2022/09/23 07:46:34;;;;;;;16.60;11.23;;;;;;;;;;5023828;28;20266;-85
2022/09/23 07:49:03;;;;;;;14.17;11.43;;;;;;;;;;5027165;28;20295;-86
2022/09/23 07:51:32;;;;;;;4.83;3.73;;;;;;;;;;5005548;28;20215;-85
2022/09/23 07:54:06;;;;;;;7.20;5.93;;;;;;;;;;5011526;28;20210;-85
2022/09/23 07:56:38;;;;;;;16.83;11.10;;;;;;;;;;5008772;28;20235;-85
2022/09/23 07:59:08;;;;;;;16.33;11.07;;;;;;;;;;5023694;28;20205;-85
2022/09/23 08:01:37;;;;;;;6.63;5.20;;;;;;;;;;5029236;28;20235;-84
2022/09/23 08:04:07;;;;;;;5.13;4.67;;;;;;;;;;5010668;28;20304;-82
2022/09/23 08:06:36;;;;;;;4.03;3.60;;;;;;;;;;5028894;28;20208;-85
2022/09/23 08:09:05;;;;;;;0.50;0.50;;;;;;;;;;5005262;28;20228;-85
2022/09/23 08:11:48;;;;;;;8.73;4.27;;;;;;;;;;5024519;28;20204;-86
2022/09/23 08:14:17;;;;;;;7.23;5.63;;;;;;;;;;5032712;28;20203;-82
2022/09/23 08:16:47;;;;;;;3.57;3.27;;;;;;;;;;5018482;28;20196;-83
2022/09/23 08:19:17;;;;;;;3.23;2.93;;;;;;;;;;5007090;28;20199;-87
2022/09/23 08:21:46;;;;;;;2.63;1.70;;;;;;;;;;5020815;28;20206;-84
2022/09/23 08:24:15;;;;;;;11.77;9.43;;;;;;;;;;5020765;28;20309;-82
2022/09/23 08:26:45;;;;;;;7.43;6.70;;;;;;;;;;5008098;28;20200;-82
2022/09/23 08:29:15;;;;;;;7.00;6.40;;;;;;;;;;5008620;28;20248;-82
2022/09/23 08:31:43;;;;;;;4.80;4.40;;;;;;;;;;5011902;28;20205;-83
2022/09/23 08:34:12;;;;;;;7.57;6.80;;;;;;;;;;5010937;28;20217;-83
2022/09/23 08:36:41;;;;;;;3.23;2.97;;;;;;;;;;5010961;28;20213;-83
2022/09/23 08:39:13;;;;;;;1.17;1.17;;;;;;;;;;5007829;28;20202;-82
2022/09/23 08:41:45;;;;;;;6.80;6.10;;;;;;;;;;5007798;28;20215;-83
2022/09/23 08:44:18;;;;;;;3.47;3.17;;;;;;;;;;5030323;28;20386;-82
2022/09/23 08:46:48;;;;;;;6.10;5.50;;;;;;;;;;5011086;28;20209;-83
2022/09/23 08:49:24;;;;;;;3.70;2.20;;;;;;;;;;5026926;28;20246;-82
2022/09/23 08:51:54;;;;;;;10.03;7.50;;;;;;;;;;5023738;28;20251;-81
2022/09/23 08:54:24;;;;;;;15.37;11.03;;;;;;;;;;5011739;28;20222;-82
2022/09/23 08:56:54;;;;;;;10.23;6.67;;;;;;;;;;5006634;28;20203;-82
2022/09/23 08:59:28;;;;;;;9.73;8.40;;;;;;;;;;5023454;28;20206;-83
2022/09/23 09:01:58;;;;;;;6.07;5.33;;;;;;;;;;5015488;28;20261;-83
2022/09/23 09:04:28;;;;;;;10.97;9.87;;;;;;;;;;5013641;28;20216;-81
2022/09/23 09:06:57;;;;;;;8.93;8.03;;;;;;;;;;5023185;28;20250;-82
2022/09/23 09:09:50;;;;;;;5.67;5.07;;;;;;;;;;5029075;28;20226;-82
2022/09/23 09:12:23;;;;;;;7.67;5.23;;;;;;;;;;5013809;28;20210;-82
2022/09/23 09:14:58;;;;;;;7.20;6.30;;;;;;;;;;5012689;28;20237;-82
2022/09/23 09:17:30;;;;;;;16.80;12.97;;;;;;;;;;5028641;28;20209;-82
2022/09/23 09:20:05;;;;;;;10.50;8.83;;;;;;;;;;5020526;28;20206;-82
2022/09/23 09:22:40;;;;;;;9.07;7.23;;;;;;;;;;5022792;28;20200;-82
2022/09/23 09:25:15;;;;;;;1.97;1.87;;;;;;;;;;5031778;28;20215;-82
2022/09/23 09:27:44;;;;;;;11.17;9.27;;;;;;;;;;5012752;28;20208;-82
2022/09/23 09:30:14;;;;;;;7.97;6.77;;;;;;;;;;5009862;28;20297;-82
2022/09/23 09:32:47;;;;;;;2.03;1.63;;;;;;;;;;5025659;28;20301;-82
2022/09/23 09:35:22;;;;;;;6.63;6.03;;;;;;;;;;5007919;28;20209;-82
2022/09/23 09:37:50;;;;;;;4.03;3.67;;;;;;;;;;5009306;28;20296;-82
2022/09/23 09:40:20;;;;;;;8.40;6.53;;;;;;;;;;5023602;28;20206;-82
2022/09/23 09:42:50;;;;;;;14.80;11.83;;;;;;;;;;5029520;28;20254;-82
2022/09/23 09:45:25;;;;;;;13.80;6.53;;;;;;;;;;5013251;28;20218;-82
2022/09/23 09:47:57;;;;;;;7.67;6.97;;;;;;;;;;5012363;28;20225;-82
2022/09/23 09:50:40;;;;;;;11.30;8.90;;;;;;;;;;5011333;28;20226;-82
2022/09/23 09:53:16;;;;;;;14.00;9.60;;;;;;;;;;5014065;28;20210;-82
2022/09/23 09:55:45;;;;;;;8.00;5.70;;;;;;;;;;5022236;28;20221;-82
2022/09/23 09:58:17;;;;;;;13.70;11.23;;;;;;;;;;5035818;28;20190;-83
2022/09/23 10:00:51;;;;;;;11.67;7.43;;;;;;;;;;5012827;28;20222;-82
2022/09/23 10:03:34;;;;;;;11.20;8.50;;;;;;;;;;5013589;28;20214;-83
2022/09/23 10:06:13;;;;;;;9.43;7.03;;;;;;;;;;5027050;28;20201;-81
2022/09/23 10:08:41;;;;;;;11.57;8.63;;;;;;;;;;5016985;28;20226;-81
2022/09/23 10:11:14;;;;;;;5.83;5.30;;;;;;;;;;5024732;28;20229;-82
2022/09/23 10:13:43;;;;;;;1.27;1.27;;;;;;;;;;5011174;28;20202;-83
2022/09/23 10:16:15;;;;;;;8.97;8.13;;;;;;;;;;5014919;28;20264;-82
2022/09/23 10:18:52;;;;;;;8.47;6.57;;;;;;;;;;5017899;28;20202;-82
2022/09/23 10:21:23;;;;;;;8.10;5.67;;;;;;;;;;5030737;28;20243;-83
2022/09/23 10:23:59;;;;;;;5.20;3.43;;;;;;;;;;5025703;28;20242;-83
2022/09/23 10:26:31;;;;;;;5.37;4.57;;;;;;;;;;5010060;28;20277;-81
2022/09/23 10:29:02;;;;;;;0.87;0.87;;;;;;;;;;5008902;28;20218;-82
2022/09/23 10:31:32;;;;;;;2.10;2.00;;;;;;;;;;5015302;28;20229;-81
2022/09/23 10:34:02;;;;;;;7.67;6.90;;;;;;;;;;5010012;28;20214;-82
2022/09/23 10:36:31;;;;;;;8.43;5.47;;;;;;;;;;5011544;28;20218;-83
2022/09/23 10:47:33;;;;;;;8.00;6.43;;;;;;;;;;5011360;28;20222;-83
2022/09/23 10:50:10;;;;;;;12.83;9.33;;;;;;;;;;5051253;28;20241;-82
2022/09/23 10:52:46;;;;;;;13.20;9.87;;;;;;;;;;5019289;28;20198;-81
2022/09/23 10:55:22;;;;;;;9.27;6.67;;;;;;;;;;5010516;28;20214;-82
2022/09/23 10:57:59;;;;;;;7.87;7.17;;;;;;;;;;5015596;28;20206;-83
2022/09/23 11:00:33;;;;;;;11.30;9.33;;;;;;;;;;5025473;28;20203;-82
2022/09/23 11:03:08;;;;;;;9.10;6.53;;;;;;;;;;5012677;28;20497;-81
2022/09/23 11:05:42;;;;;;;7.00;4.97;;;;;;;;;;5010986;28;20215;-82
2022/09/23 11:08:19;;;;;;;14.83;9.43;;;;;;;;;;5015261;28;20214;-82
2022/09/23 11:11:08;;;;;;;10.93;7.90;;;;;;;;;;5024230;28;20261;-83
2022/09/23 11:13:43;;;;;;;16.20;11.13;;;;;;;;;;5013128;28;20204;-82
2022/09/23 11:16:17;;;;;;;11.87;9.90;;;;;;;;;;5007278;28;20243;-82
2022/09/23 11:18:53;;;;;;;4.77;4.27;;;;;;;;;;5010330;28;20301;-83
2022/09/23 11:21:33;;;;;;;12.10;10.87;;;;;;;;;;5021723;28;20260;-82
2022/09/23 11:24:14;;;;;;;20.87;13.73;;;;;;;;;;5012259;28;20302;-82
2022/09/23 11:26:51;;;;;;;12.37;9.47;;;;;;;;;;5006502;28;20216;-83
2022/09/23 11:29:35;;;;;;;11.27;9.80;;;;;;;;;;5012107;28;20227;-82
2022/09/23 11:32:10;;;;;;;7.73;6.73;;;;;;;;;;5030429;28;20216;-82
2022/09/23 11:34:50;;;;;;;15.03;10.47;;;;;;;;;;5012741;28;20228;-82
2022/09/23 11:37:25;;;;;;;14.63;12.63;;;;;;;;;;5005711;28;20209;-81
2022/09/23 11:39:56;;;;;;;14.07;12.50;;;;;;;;;;5011587;28;20261;-81
2022/09/23 11:42:27;;;;;;;16.90;13.13;;;;;;;;;;5010038;28;20206;-82
2022/09/23 11:44:59;;;;;;;8.23;7.40;;;;;;;;;;5013494;28;20212;-82
2022/09/23 11:47:36;;;;;;;14.40;9.20;;;;;;;;;;5006346;28;20227;-83
2022/09/23 11:50:13;;;;;;;9.63;7.90;;;;;;;;;;5010534;28;20214;-84
2022/09/23 11:52:45;;;;;;;22.83;12.27;;;;;;;;;;5006605;28;20211;-81
2022/09/23 11:55:16;;;;;;;15.27;13.87;;;;;;;;;;5006232;28;20203;-82
2022/09/23 11:57:52;;;;;;;8.93;7.83;;;;;;;;;;5011100;28;20209;-83
2022/09/23 12:00:22;;;;;;;19.00;11.67;;;;;;;;;;5017441;28;20204;-81
2022/09/23 12:02:56;;;;;;;14.00;9.70;;;;;;;;;;5026995;28;20210;-81
2022/09/23 12:05:36;;;;;;;17.07;11.47;;;;;;;;;;5017664;28;20193;-82
2022/09/23 12:08:08;;;;;;;13.40;11.33;;;;;;;;;;5025998;28;20214;-80
2022/09/23 12:10:48;;;;;;;13.83;11.67;;;;;;;;;;5034296;28;20337;-82
2022/09/23 12:13:21;;;;;;;10.23;9.07;;;;;;;;;;5015516;28;20206;-82
2022/09/23 12:15:57;;;;;;;16.13;13.67;;;;;;;;;;5024628;28;20203;-82
2022/09/23 12:18:38;;;;;;;16.20;13.67;;;;;;;;;;5030187;28;20268;-81
2022/09/23 12:21:21;;;;;;;12.07;10.53;;;;;;;;;;5025284;28;20195;-82
2022/09/23 12:24:23;;;;;;;12.93;11.33;;;;;;;;;;5022333;28;20235;-82
2022/09/23 12:26:55;;;;;;;12.37;10.87;;;;;;;;;;5009799;28;20333;-82
2022/09/23 12:29:25;;;;;;;16.93;13.20;;;;;;;;;;5039382;28;20210;-82
2022/09/23 12:31:54;;;;;;;13.33;11.13;;;;;;;;;;5015356;28;20203;-83
2022/09/23 12:34:25;;;;;;;12.60;10.40;;;;;;;;;;5019220;28;20261;-82
2022/09/23 12:37:01;;;;;;;12.73;9.27;;;;;;;;;;5019131;28;20211;-82
2022/09/23 12:39:31;;;;;;;1.27;1.17;;;;;;;;;;5015863;28;20782;-82
2022/09/23 12:42:02;;;;;;;11.90;7.57;;;;;;;;;;5016212;28;20215;-80
2022/09/23 12:44:33;;;;;;;10.50;8.57;;;;;;;;;;5021992;28;20243;-83
2022/09/23 12:47:24;;;;;;;11.70;10.00;;;;;;;;;;5021274;28;20207;-82
2022/09/23 12:49:53;;;;;;;9.20;8.00;;;;;;;;;;5024589;28;20207;-81
2022/09/23 12:52:25;;;;;;;19.17;6.63;;;;;;;;;;5018084;28;20317;-80
2022/09/23 12:54:57;;;;;;;10.90;7.60;;;;;;;;;;5017623;28;20265;-81
2022/09/23 12:57:42;;;;;;;10.63;8.80;;;;;;;;;;5018374;28;20238;-80
2022/09/23 13:00:26;;;;;;;14.10;11.77;;;;;;;;;;5017210;28;20207;-81
2022/09/23 13:08:38;;;;;;;3.77;3.47;;;;;;;;;;5019276;28;20297;-82
2022/09/23 13:11:22;;;;;;;13.23;7.43;;;;;;;;;;5017397;28;20341;-82
2022/09/23 13:13:52;;;;;;;9.97;6.57;;;;;;;;;;5020654;28;20210;-82
2022/09/23 13:16:22;;;;;;;7.47;5.40;;;;;;;;;;5020363;28;20199;-82
2022/09/23 13:18:52;;;;;;;2.00;1.90;;;;;;;;;;5018926;28;20286;-82
2022/09/23 13:21:36;;;;;;;3.93;3.63;;;;;;;;;;5017256;28;20191;-82
2022/09/23 13:24:21;;;;;;;11.17;7.53;;;;;;;;;;5023125;28;20293;-81
2022/09/23 13:26:50;;;;;;;1.67;1.57;;;;;;;;;;5032079;28;20254;-82
2022/09/23 13:29:21;;;;;;;5.57;3.10;;;;;;;;;;5016793;28;20208;-82
2022/09/23 13:31:49;;;;;;;5.97;4.53;;;;;;;;;;5018338;28;20253;-82
2022/09/23 13:34:21;;;;;;;1.47;1.37;;;;;;;;;;5021010;28;20216;-81
2022/09/23 13:36:49;;;;;;;5.40;4.73;;;;;;;;;;5031750;28;20210;-80
2022/09/23 13:39:23;;;;;;;6.97;3.60;;;;;;;;;;5022307;28;20206;-80
2022/09/23 13:41:53;;;;;;;7.30;6.30;;;;;;;;;;5025503;28;20199;-79
2022/09/23 13:44:22;;;;;;;10.37;7.17;;;;;;;;;;5023860;28;20255;-80
2022/09/23 13:46:52;;;;;;;11.30;6.37;;;;;;;;;;5022157;28;20365;-81
2022/09/23 13:49:23;;;;;;;10.37;7.43;;;;;;;;;;5026912;28;20199;-81
2022/09/23 13:51:52;;;;;;;12.10;8.00;;;;;;;;;;5032833;28;20225;-82
2022/09/23 13:54:28;;;;;;;8.07;7.23;;;;;;;;;;5026109;28;20230;-81
2022/09/23 13:56:57;;;;;;;9.17;5.63;;;;;;;;;;5024456;28;20290;-81
2022/09/23 13:59:26;;;;;;;11.73;7.83;;;;;;;;;;5026670;28;20206;-82
2022/09/23 14:02:05;;;;;;;8.50;6.30;;;;;;;;;;5023050;28;20242;-81
2022/09/23 14:04:34;;;;;;;8.63;5.13;;;;;;;;;;5038036;28;20199;-81
2022/09/23 14:07:02;;;;;;;6.50;5.47;;;;;;;;;;5020399;28;20204;-81
2022/09/23 14:09:32;;;;;;;1.80;1.70;;;;;;;;;;5025774;28;20203;-81
2022/09/23 14:12:01;;;;;;;5.53;5.03;;;;;;;;;;5031512;28;20223;-82
2022/09/23 14:14:30;;;;;;;2.97;2.77;;;;;;;;;;5036349;28;20199;-82
2022/09/23 14:16:59;;;;;;;2.10;2.00;;;;;;;;;;5039269;28;20207;-82
2022/09/23 14:19:27;;;;;;;7.93;6.63;;;;;;;;;;5044363;28;20277;-82
2022/09/23 14:21:57;;;;;;;3.10;2.83;;;;;;;;;;5020861;28;20203;-81
2022/09/23 14:24:30;;;;;;;8.83;7.23;;;;;;;;;;5026518;28;20246;-81
2022/09/23 14:27:02;;;;;;;7.77;5.10;;;;;;;;;;5036911;28;20207;-81
2022/09/23 14:29:31;;;;;;;9.23;8.17;;;;;;;;;;5023061;28;20203;-81
2022/09/23 14:32:02;;;;;;;8.37;6.13;;;;;;;;;;5020768;28;20311;-80
2022/09/23 14:34:44;;;;;;;8.20;6.87;;;;;;;;;;5021585;28;20223;-81
2022/09/23 14:40:02;;;;;;;15.40;10.37;;;;;;;;;;5020990;28;20204;-81
2022/09/23 14:42:39;;;;;;;8.00;6.03;;;;;;;;;;5032601;28;20262;-81
2022/09/23 14:45:13;;;;;;;15.27;13.67;;;;;;;;;;5018652;28;20216;-81
2022/09/23 14:47:44;;;;;;;11.77;10.67;;;;;;;;;;5034285;28;20205;-81
2022/09/23 14:53:01;;;;;;;10.70;9.60;;;;;;;;;;5025432;28;20208;-81
2022/09/23 14:55:30;;;;;;;8.30;7.47;;;;;;;;;;5021276;28;20210;-82
2022/09/23 14:58:11;;;;;;;10.93;9.83;;;;;;;;;;5039797;28;20280;-82
2022/09/23 15:00:40;;;;;;;13.30;8.97;;;;;;;;;;5025929;28;20201;-81
2022/09/23 15:03:13;;;;;;;8.97;7.40;;;;;;;;;;5018997;28;20237;-82
2022/09/23 15:05:43;;;;;;;11.50;8.20;;;;;;;;;;5022201;28;20206;-82
2022/09/23 15:08:14;;;;;;;8.90;7.10;;;;;;;;;;5028707;28;20211;-83
2022/09/23 15:10:42;;;;;;;8.33;6.27;;;;;;;;;;5020876;28;20201;-82
2022/09/23 15:13:16;;;;;;;7.83;5.33;;;;;;;;;;5015196;28;20197;-82
2022/09/23 15:15:44;;;;;;;10.93;9.57;;;;;;;;;;5036806;28;20213;-81
2022/09/23 15:18:17;;;;;;;11.97;8.70;;;;;;;;;;5024948;28;20200;-81
2022/09/23 15:20:49;;;;;;;13.80;10.17;;;;;;;;;;5020171;28;20241;-82
2022/09/23 15:23:32;;;;;;;7.07;6.43;;;;;;;;;;5017852;28;20258;-83
2022/09/23 15:26:04;;;;;;;13.27;10.93;;;;;;;;;;5023887;28;20206;-83
2022/09/23 15:28:34;;;;;;;15.17;13.13;;;;;;;;;;5023537;28;20217;-83